Terminal Aerodrome Forecast
Issued by NWS Mt. Holly, NJ

Home | Current Version | Previous Version | Text Only | Print | Product List | Glossary On
Versions: 1 2 3 4 5 6 7 8 9 10 11 12 13 14 15 16
000
FTUS41 KPHI 282300
TAFILG
TAF
KILG 282324Z 2900/2924 29005KT P6SM -SHRA SCT050 OVC070
     FM290800 34007KT P6SM SCT070 BKN150
     FM291500 36008KT P6SM BKN250=

USA.gov is the U.S. government's official web portal to all federal, state and local government web resources and services.